Time;durP1;ratioP1;P1;durP2;ratioP2;P2;SDS_P1;SDS_P2;PMS_P1;PMS_P2;Temp;Humidity;BMP_temperature;BMP_pressure;BME280_temperature;BME280_humidity;BME280_pressure;Samples;Min_cycle;Max_cycle;Signal;HPM_P1;HPM_P2
2022/06/12 00:00:37;;;;;;;12.48;2.67;;;14.60;99.90;;;;;;4951805;28;20049;-78
2022/06/12 00:03:06;;;;;;;8.75;2.20;;;14.50;99.90;;;;;;4951918;28;20043;-78
2022/06/12 00:05:36;;;;;;;10.40;2.65;;;14.50;99.90;;;;;;4951828;28;20073;-78
2022/06/12 00:08:03;;;;;;;11.38;2.92;;;14.40;99.90;;;;;;4969058;28;20104;-79
2022/06/12 00:10:29;;;;;;;8.98;2.53;;;14.30;99.90;;;;;;4949052;28;20042;-78
2022/06/12 00:12:55;;;;;;;9.10;2.72;;;14.20;99.90;;;;;;4951676;28;20046;-78
2022/06/12 00:15:24;;;;;;;8.77;2.40;;;14.10;99.90;;;;;;4968373;28;20058;-78
2022/06/12 00:17:51;;;;;;;9.43;2.58;;;14.00;99.90;;;;;;4949945;28;20054;-78
2022/06/12 00:20:17;;;;;;;11.13;2.70;;;13.90;99.90;;;;;;4950200;28;20078;-78
2022/06/12 00:22:44;;;;;;;10.50;2.72;;;13.90;99.90;;;;;;4948663;28;20039;-78
2022/06/12 00:25:13;;;;;;;10.20;2.80;;;13.80;99.90;;;;;;4936035;28;20041;-78
2022/06/12 00:27:40;;;;;;;10.02;2.42;;;13.80;99.90;;;;;;4953127;28;20522;-78
2022/06/12 00:30:10;;;;;;;10.75;2.38;;;13.70;99.90;;;;;;4949180;28;20130;-78
2022/06/12 00:32:36;;;;;;;10.27;2.50;;;13.70;99.90;;;;;;4950969;28;20160;-78
2022/06/12 00:35:05;;;;;;;10.40;2.90;;;13.70;99.90;;;;;;4981546;28;20043;-78
2022/06/12 00:37:31;;;;;;;9.85;2.60;;;13.70;99.90;;;;;;4952071;28;20046;-78
2022/06/12 00:39:57;;;;;;;9.23;2.45;;;13.70;99.90;;;;;;4950870;28;20035;-78
2022/06/12 00:42:26;;;;;;;10.77;2.70;;;13.80;99.90;;;;;;4946688;28;20038;-78
2022/06/12 00:44:54;;;;;;;10.55;2.45;;;13.80;99.90;;;;;;4948867;28;20042;-78
2022/06/12 00:47:20;;;;;;;11.10;2.55;;;13.90;99.90;;;;;;4934564;28;20110;-78
2022/06/12 00:50:05;;;;;;;8.90;2.50;;;13.90;99.90;;;;;;4912648;28;20071;-79
2022/06/12 00:52:47;;;;;;;10.80;2.70;;;13.90;99.90;;;;;;4964617;28;20047;-78
2022/06/12 00:55:37;;;;;;;8.80;2.38;;;14.00;99.90;;;;;;4948507;28;20035;-78
2022/06/12 00:58:11;;;;;;;9.90;2.75;;;14.00;99.90;;;;;;4952647;28;20354;-78
2022/06/12 01:00:37;;;;;;;8.88;2.65;;;14.00;99.90;;;;;;4951696;28;20313;-78
2022/06/12 01:03:03;;;;;;;10.15;2.38;;;13.90;99.90;;;;;;4946710;28;20081;-78
2022/06/12 01:08:15;;;;;;;9.88;2.40;;;14.00;99.90;;;;;;4957689;28;20470;-78
2022/06/12 01:10:44;;;;;;;9.25;2.42;;;13.90;99.90;;;;;;4969669;28;20394;-78
2022/06/12 01:13:18;;;;;;;12.10;2.83;;;13.90;99.90;;;;;;4988415;28;20141;-78
2022/06/12 01:15:52;;;;;;;10.15;2.42;;;13.90;99.90;;;;;;4954802;28;20050;-78
2022/06/12 01:18:23;;;;;;;12.98;2.90;;;13.90;99.90;;;;;;4955644;28;20051;-78
2022/06/12 01:21:03;;;;;;;12.60;2.90;;;13.90;99.90;;;;;;4944599;28;20056;-78
2022/06/12 01:23:50;;;;;;;10.60;2.63;;;13.90;99.90;;;;;;4955536;28;20057;-78
2022/06/12 01:26:53;;;;;;;11.68;2.90;;;13.80;99.90;;;;;;4954054;28;20042;-78
2022/06/12 01:29:25;;;;;;;10.45;2.50;;;13.80;99.90;;;;;;4970468;28;20048;-78
2022/06/12 01:32:11;;;;;;;10.93;2.50;;;13.80;99.90;;;;;;4984671;28;20046;-78
2022/06/12 01:34:45;;;;;;;9.57;2.53;;;13.80;99.90;;;;;;4940572;28;20047;-78
2022/06/12 01:37:11;;;;;;;12.80;2.78;;;13.80;99.90;;;;;;4972117;28;20038;-78
2022/06/12 01:39:49;;;;;;;12.85;2.53;;;13.80;99.90;;;;;;4959827;28;20051;-78
2022/06/12 01:42:34;;;;;;;9.10;2.17;;;13.80;99.90;;;;;;4971358;28;20034;-78
2022/06/12 01:45:25;;;;;;;10.27;2.70;;;13.80;99.90;;;;;;4949243;28;20568;-78
2022/06/12 01:48:09;;;;;;;11.80;2.90;;;13.80;99.90;;;;;;4967291;28;20057;-78
2022/06/12 01:50:54;;;;;;;10.82;3.20;;;13.80;99.90;;;;;;4949857;28;20039;-78
2022/06/12 01:53:35;;;;;;;13.10;2.83;;;13.80;99.90;;;;;;4956259;28;20498;-78
2022/06/12 01:56:06;;;;;;;11.80;2.80;;;13.80;99.90;;;;;;4949762;28;20127;-78
2022/06/12 01:58:45;;;;;;;11.00;2.83;;;13.80;99.90;;;;;;4962882;28;20049;-78
2022/06/12 02:01:35;;;;;;;10.38;2.63;;;13.80;99.90;;;;;;4952741;28;20038;-78
2022/06/12 02:04:17;;;;;;;11.45;2.83;;;13.80;99.90;;;;;;4967289;28;20078;-78
2022/06/12 02:06:58;;;;;;;10.00;2.50;;;13.70;99.90;;;;;;4955494;28;20614;-78
2022/06/12 02:09:35;;;;;;;9.25;2.55;;;13.80;99.90;;;;;;4970064;28;20050;-79
2022/06/12 02:14:57;;;;;;;11.55;2.38;;;13.70;99.90;;;;;;4970406;28;20122;-79
2022/06/12 02:17:30;;;;;;;11.82;3.10;;;13.70;99.90;;;;;;4955408;28;20042;-78
2022/06/12 02:19:56;;;;;;;12.18;3.33;;;13.70;99.90;;;;;;4950235;28;20039;-78
2022/06/12 02:22:26;;;;;;;9.27;2.55;;;13.70;99.90;;;;;;4970699;28;20394;-78
2022/06/12 02:24:58;;;;;;;9.57;2.72;;;13.70;99.90;;;;;;4961050;28;20042;-78
2022/06/12 02:27:32;;;;;;;8.60;2.55;;;13.70;99.90;;;;;;4970588;28;20608;-79
2022/06/12 02:30:21;;;;;;;10.05;2.60;;;13.70;99.90;;;;;;4954040;28;20031;-79
2022/06/12 02:32:58;;;;;;;11.63;2.85;;;13.70;99.90;;;;;;4966664;28;20133;-78
2022/06/12 02:35:43;;;;;;;14.88;3.05;;;13.50;99.90;;;;;;4954510;28;20125;-79
2022/06/12 02:38:22;;;;;;;13.00;3.42;;;12.80;99.90;;;;;;4954642;28;20400;-78
2022/06/12 02:40:56;;;;;;;11.15;2.85;;;13.60;99.90;;;;;;4949884;28;20097;-79
2022/06/12 02:43:27;;;;;;;11.57;2.35;;;13.50;99.90;;;;;;4947856;28;20050;-78
2022/06/12 02:46:14;;;;;;;9.18;2.55;;;13.50;99.90;;;;;;4954276;28;20042;-79
2022/06/12 02:48:41;;;;;;;13.40;2.47;;;13.50;99.90;;;;;;4970716;28;20050;-79
2022/06/12 02:51:25;;;;;;;11.75;2.90;;;13.50;99.90;;;;;;4968413;28;20105;-79
2022/06/12 02:53:59;;;;;;;10.63;2.83;;;13.50;99.90;;;;;;4970219;28;20042;-78
2022/06/12 02:56:38;;;;;;;12.18;3.67;;;13.50;99.90;;;;;;4970094;28;20126;-78
2022/06/12 02:59:27;;;;;;;11.07;2.70;;;13.50;99.90;;;;;;4967523;28;20153;-79
2022/06/12 03:02:28;;;;;;;9.30;2.72;;;13.50;99.90;;;;;;4967281;28;20512;-78
2022/06/12 03:05:13;;;;;;;13.43;2.85;;;13.40;99.90;;;;;;4965101;28;20513;-78
2022/06/12 03:07:39;;;;;;;9.70;2.50;;;13.40;99.90;;;;;;4950254;28;20105;-78
2022/06/12 03:10:11;;;;;;;10.85;2.53;;;13.40;99.90;;;;;;4945268;28;20522;-79
2022/06/12 03:12:37;;;;;;;11.25;2.80;;;13.40;99.90;;;;;;4955553;28;20074;-78
2022/06/12 03:15:08;;;;;;;11.30;2.50;;;13.40;99.90;;;;;;4939355;28;20458;-78
2022/06/12 03:17:33;;;;;;;10.82;2.88;;;13.40;99.90;;;;;;4953278;28;20378;-79
2022/06/12 03:19:59;;;;;;;9.50;2.58;;;13.30;99.90;;;;;;4968345;28;20065;-78
2022/06/12 03:22:46;;;;;;;10.90;2.70;;;13.30;99.90;;;;;;4953691;28;20046;-78
2022/06/12 03:25:32;;;;;;;10.07;2.97;;;13.30;99.90;;;;;;4961606;28;20038;-79
2022/06/12 03:28:04;;;;;;;10.45;2.75;;;13.30;99.90;;;;;;4951901;28;20428;-79
2022/06/12 03:30:38;;;;;;;13.57;2.97;;;13.30;99.90;;;;;;4967006;28;20130;-78
2022/06/12 03:33:18;;;;;;;9.68;2.35;;;13.30;99.90;;;;;;4954776;28;20301;-78
2022/06/12 03:36:04;;;;;;;10.73;2.50;;;13.30;99.90;;;;;;4969755;28;20038;-78
2022/06/12 03:38:42;;;;;;;11.10;3.00;;;13.30;99.90;;;;;;4972190;28;20049;-79
2022/06/12 03:41:27;;;;;;;12.38;3.08;;;13.20;99.90;;;;;;4955124;28;20096;-78
2022/06/12 03:44:17;;;;;;;11.38;2.60;;;13.20;99.90;;;;;;4970371;28;20913;-78
2022/06/12 03:47:04;;;;;;;10.82;2.75;;;13.30;99.90;;;;;;4965708;28;20046;-79
2022/06/12 03:49:44;;;;;;;9.68;2.33;;;13.30;99.90;;;;;;4962026;28;20477;-78
2022/06/12 03:52:32;;;;;;;10.25;2.50;;;13.30;99.90;;;;;;4954292;28;20155;-78
2022/06/12 03:57:50;;;;;;;11.43;2.55;;;13.30;99.90;;;;;;4958147;28;20129;-78
2022/06/12 03:58:19;;;;;;;11.43;2.55;;;13.30;99.90;;;;;;4964232;28;20046;-79
2022/06/12 04:00:48;;;;;;;13.48;3.20;;;13.20;99.90;;;;;;4971045;28;20046;-79
2022/06/12 04:03:20;;;;;;;9.38;2.58;;;13.20;99.90;;;;;;4987953;28;20441;-78
2022/06/12 04:05:55;;;;;;;8.10;2.40;;;13.30;99.90;;;;;;4971189;28;20514;-78
2022/06/12 04:08:25;;;;;;;13.68;3.10;;;13.30;99.90;;;;;;4952431;28;20141;-78
2022/06/12 04:10:53;;;;;;;10.75;2.53;;;13.30;99.90;;;;;;4971985;28;20045;-79
2022/06/12 04:13:20;;;;;;;9.80;2.90;;;13.30;99.90;;;;;;4971038;28;20042;-78
2022/06/12 04:15:54;;;;;;;13.80;2.92;;;13.40;99.90;;;;;;4955442;28;20112;-78
2022/06/12 04:18:21;;;;;;;8.20;2.40;;;13.40;99.90;;;;;;4971508;28;20043;-78
2022/06/12 04:20:58;;;;;;;12.02;2.95;;;13.50;99.90;;;;;;4967527;28;20416;-78
2022/06/12 04:23:42;;;;;;;10.40;2.63;;;13.50;99.90;;;;;;4954684;28;20570;-78
2022/06/12 04:26:22;;;;;;;11.52;2.83;;;13.60;99.90;;;;;;4969748;28;20575;-79
2022/06/12 04:28:57;;;;;;;9.82;2.33;;;13.70;99.90;;;;;;4954044;28;20097;-79
2022/06/12 04:31:23;;;;;;;10.60;2.78;;;13.70;99.90;;;;;;4970229;28;20061;-79
2022/06/12 04:34:14;;;;;;;9.73;2.45;;;13.80;99.90;;;;;;4954823;28;20039;-78
2022/06/12 04:36:44;;;;;;;10.25;2.50;;;13.80;99.90;;;;;;4969960;28;20606;-79
2022/06/12 04:39:22;;;;;;;9.65;2.42;;;13.90;99.90;;;;;;4952584;28;20100;-78
2022/06/12 04:41:48;;;;;;;11.23;2.60;;;13.90;99.90;;;;;;4972873;28;20137;-79
2022/06/12 04:44:13;;;;;;;10.57;2.92;;;14.00;99.90;;;;;;4938139;28;20042;-79
2022/06/12 04:46:42;;;;;;;11.30;2.70;;;14.10;99.90;;;;;;4952760;28;20101;-79
2022/06/12 04:49:13;;;;;;;10.25;2.92;;;14.20;99.90;;;;;;4969821;28;20045;-78
2022/06/12 04:51:39;;;;;;;12.63;2.83;;;14.20;99.90;;;;;;4956081;28;20039;-78
2022/06/12 04:54:05;;;;;;;9.00;2.60;;;14.30;99.90;;;;;;4971056;28;20850;-78
2022/06/12 04:56:32;;;;;;;9.10;2.40;;;14.40;99.90;;;;;;4951829;28;20035;-79
2022/06/12 04:58:58;;;;;;;12.57;2.90;;;14.40;99.90;;;;;;4953519;28;20041;-79
2022/06/12 05:01:24;;;;;;;7.03;2.33;;;14.50;99.90;;;;;;4958002;28;20046;-78
2022/06/12 05:03:50;;;;;;;10.68;2.78;;;14.50;99.90;;;;;;4942214;28;20048;-79
2022/06/12 05:06:18;;;;;;;9.80;2.40;;;14.50;99.90;;;;;;4954344;28;20042;-79
2022/06/12 05:08:46;;;;;;;10.65;2.78;;;14.40;99.90;;;;;;4969212;28;20046;-78
2022/06/12 05:11:12;;;;;;;10.48;2.70;;;14.30;99.90;;;;;;4954986;28;20133;-79
2022/06/12 05:13:39;;;;;;;11.13;2.90;;;14.30;99.90;;;;;;4969202;28;20900;-79
2022/06/12 05:16:05;;;;;;;13.65;2.80;;;14.40;99.90;;;;;;4953751;28;20420;-79
2022/06/12 05:18:31;;;;;;;11.40;2.70;;;14.50;99.90;;;;;;4965804;28;20043;-79
2022/06/12 05:20:57;;;;;;;13.15;3.10;;;14.60;99.90;;;;;;4936570;28;20031;-78
2022/06/12 05:23:23;;;;;;;10.60;2.85;;;14.70;99.90;;;;;;4955266;28;20547;-80
2022/06/12 05:25:49;;;;;;;14.82;2.80;;;14.70;99.90;;;;;;4968903;28;20045;-79
2022/06/12 05:28:17;;;;;;;13.80;3.00;;;14.70;99.90;;;;;;4969297;28;20499;-79
2022/06/12 05:30:43;;;;;;;11.20;3.22;;;14.80;99.90;;;;;;4950142;28;20097;-79
2022/06/12 05:33:10;;;;;;;12.02;3.00;;;14.80;99.90;;;;;;4950068;28;20045;-79
2022/06/12 05:35:37;;;;;;;13.38;3.25;;;14.90;99.90;;;;;;4945780;28;20547;-79
2022/06/12 05:38:04;;;;;;;11.60;3.00;;;15.00;99.90;;;;;;4956757;28;20170;-79
2022/06/12 05:40:32;;;;;;;11.48;3.05;;;15.10;99.90;;;;;;4951359;28;20492;-79
2022/06/12 05:42:58;;;;;;;13.13;3.28;;;15.10;99.90;;;;;;4965593;28;20073;-79
2022/06/12 05:45:26;;;;;;;11.98;3.08;;;15.30;99.90;;;;;;4950890;28;20047;-79
2022/06/12 05:47:58;;;;;;;14.13;2.97;;;15.30;99.90;;;;;;4941169;28;20086;-78
2022/06/12 05:50:29;;;;;;;13.10;3.20;;;15.40;99.90;;;;;;4966941;28;20073;-78
2022/06/12 05:52:55;;;;;;;13.48;3.20;;;15.50;99.90;;;;;;4952578;28;20046;-78
2022/06/12 05:55:21;;;;;;;12.05;3.50;;;15.60;99.90;;;;;;4968179;28;20505;-79
2022/06/12 05:57:47;;;;;;;13.10;2.83;;;15.70;99.90;;;;;;4949279;28;20049;-79
2022/06/12 06:00:21;;;;;;;15.30;3.42;;;15.80;99.90;;;;;;4963478;28;20043;-79
2022/06/12 06:02:47;;;;;;;13.68;3.22;;;15.90;99.90;;;;;;4966389;28;20039;-79
2022/06/12 06:05:13;;;;;;;12.05;3.47;;;16.00;99.90;;;;;;4953655;28;20062;-79
2022/06/12 06:07:39;;;;;;;16.67;3.88;;;16.10;99.90;;;;;;4967096;28;20500;-79
2022/06/12 06:10:08;;;;;;;16.35;3.65;;;16.20;99.90;;;;;;4947217;28;20074;-79
2022/06/12 06:12:34;;;;;;;14.02;3.40;;;16.30;99.90;;;;;;4969711;28;20035;-79
2022/06/12 06:15:00;;;;;;;11.77;2.92;;;16.40;99.90;;;;;;4950790;28;20446;-79
2022/06/12 06:17:25;;;;;;;15.25;3.90;;;16.50;99.90;;;;;;4938691;28;20122;-79
2022/06/12 06:19:51;;;;;;;14.00;3.97;;;16.50;99.90;;;;;;4967297;28;20113;-79
2022/06/12 06:22:18;;;;;;;16.80;3.83;;;16.60;99.90;;;;;;4967949;28;20461;-78
2022/06/12 06:24:45;;;;;;;16.67;3.67;;;16.70;99.90;;;;;;4952396;28;20070;-78
2022/06/12 06:27:11;;;;;;;14.20;3.58;;;16.80;99.90;;;;;;4967872;28;20119;-79
2022/06/12 06:29:37;;;;;;;15.85;3.53;;;16.80;99.90;;;;;;4948429;28;20034;-79
2022/06/12 06:32:05;;;;;;;16.25;4.28;;;16.90;99.90;;;;;;4951787;28;20046;-79
2022/06/12 06:34:31;;;;;;;18.95;3.72;;;16.90;99.90;;;;;;4952522;28;20153;-79
2022/06/12 06:36:57;;;;;;;15.48;3.90;;;17.00;99.90;;;;;;4970235;28;20051;-79
2022/06/12 06:39:23;;;;;;;14.35;3.28;;;17.20;99.90;;;;;;4935635;28;20130;-79
2022/06/12 06:41:49;;;;;;;12.50;3.45;;;17.30;99.90;;;;;;4953268;28;20057;-79
2022/06/12 06:46:59;;;;;;;16.77;4.30;;;17.50;99.90;;;;;;4966222;28;20552;-79
2022/06/12 06:49:25;;;;;;;14.32;3.60;;;17.60;99.90;;;;;;4953453;28;20122;-79
2022/06/12 06:51:51;;;;;;;13.77;3.42;;;17.70;99.90;;;;;;4969701;28;20522;-79
2022/06/12 06:54:18;;;;;;;14.00;3.58;;;17.80;99.90;;;;;;4966173;28;20038;-79
2022/06/12 06:56:46;;;;;;;15.35;3.90;;;17.90;99.90;;;;;;4971035;28;20042;-79
2022/06/12 06:59:12;;;;;;;13.82;3.58;;;18.00;99.90;;;;;;4953558;28;20093;-79
2022/06/12 07:01:38;;;;;;;15.00;3.70;;;18.00;99.90;;;;;;4953289;28;20097;-79
2022/06/12 07:04:04;;;;;;;16.33;3.75;;;18.20;99.90;;;;;;4953097;28;20046;-79
2022/06/12 07:06:30;;;;;;;15.80;3.88;;;18.30;99.90;;;;;;4938198;28;20183;-79
2022/06/12 07:08:56;;;;;;;15.48;4.00;;;18.40;99.90;;;;;;4969061;28;20060;-79
2022/06/12 07:11:23;;;;;;;14.55;3.45;;;18.50;99.90;;;;;;4935804;28;20047;-79
2022/06/12 07:13:50;;;;;;;15.10;3.30;;;18.90;99.90;;;;;;4969886;28;20035;-79
2022/06/12 07:16:17;;;;;;;18.75;3.95;;;18.70;99.90;;;;;;4970502;28;20604;-79
2022/06/12 07:18:43;;;;;;;14.70;4.05;;;18.80;99.90;;;;;;4969826;28;20050;-79
2022/06/12 07:21:10;;;;;;;14.30;3.40;;;18.90;99.90;;;;;;4943192;28;20490;-79
2022/06/12 07:23:36;;;;;;;16.05;3.63;;;19.00;99.90;;;;;;4950971;28;20051;-79
2022/06/12 07:26:07;;;;;;;14.85;3.47;;;19.00;99.90;;;;;;4950342;28;20046;-79
2022/06/12 07:28:36;;;;;;;14.73;3.35;;;19.00;99.90;;;;;;4937465;28;20050;-79
2022/06/12 07:31:04;;;;;;;15.13;3.80;;;19.10;99.90;;;;;;4944692;28;20054;-79
2022/06/12 07:33:30;;;;;;;17.95;3.83;;;19.30;99.90;;;;;;4916190;28;20055;-79
2022/06/12 07:35:56;;;;;;;15.00;3.72;;;19.30;99.90;;;;;;4946556;28;20070;-80
2022/06/12 07:38:24;;;;;;;15.18;3.97;;;19.40;99.90;;;;;;4932418;29;20050;-79
2022/06/12 07:40:57;;;;;;;15.30;3.42;;;19.50;99.90;;;;;;4962740;28;20059;-80
2022/06/12 07:43:24;;;;;;;18.33;4.10;;;19.60;99.90;;;;;;4949257;29;20051;-82
2022/06/12 07:45:51;;;;;;;13.05;3.20;;;19.60;99.90;;;;;;4930234;29;20051;-81
2022/06/12 07:48:19;;;;;;;12.35;3.17;;;19.70;99.90;;;;;;4946104;28;20118;-80
2022/06/12 07:50:45;;;;;;;14.70;3.75;;;19.90;99.90;;;;;;4936997;28;20043;-81
2022/06/12 07:53:12;;;;;;;14.43;3.22;;;20.00;99.90;;;;;;4933316;29;20031;-81
2022/06/12 07:55:38;;;;;;;14.45;3.47;;;20.20;99.90;;;;;;4931956;29;20370;-81
2022/06/12 07:58:04;;;;;;;13.15;3.45;;;20.20;99.90;;;;;;4947510;29;20047;-81
2022/06/12 08:00:30;;;;;;;15.00;3.28;;;20.30;99.90;;;;;;4946799;28;20182;-81
2022/06/12 08:02:56;;;;;;;11.38;2.70;;;20.20;99.90;;;;;;4945239;28;20134;-80
2022/06/12 08:05:22;;;;;;;12.73;3.00;;;20.20;99.90;;;;;;4925012;28;20043;-80
2022/06/12 08:07:49;;;;;;;11.52;3.20;;;20.40;99.90;;;;;;4955996;28;20054;-80
2022/06/12 08:10:15;;;;;;;14.65;3.70;;;20.50;99.90;;;;;;4917152;29;20039;-80
2022/06/12 08:12:43;;;;;;;10.50;2.65;;;20.50;99.90;;;;;;4957637;28;20280;-81
2022/06/12 08:15:12;;;;;;;15.07;3.40;;;20.60;99.90;;;;;;4949117;28;20043;-80
2022/06/12 08:17:38;;;;;;;12.82;2.88;;;20.60;99.90;;;;;;4965351;28;20066;-81
2022/06/12 08:22:49;;;;;;;11.73;2.70;;;20.60;99.90;;;;;;4949136;28;20039;-81
2022/06/12 08:25:15;;;;;;;12.88;2.72;;;20.70;99.90;;;;;;4934421;28;20486;-81
2022/06/12 08:27:40;;;;;;;15.25;3.47;;;20.80;99.90;;;;;;4917795;29;20120;-80
2022/06/12 08:30:08;;;;;;;10.70;2.95;;;20.90;99.90;;;;;;4948828;28;20429;-81
2022/06/12 08:32:35;;;;;;;14.10;3.60;;;20.80;99.90;;;;;;4944364;28;20055;-81
2022/06/12 08:35:10;;;;;;;14.02;2.75;;;20.90;99.90;;;;;;4968562;28;20049;-82
2022/06/12 08:37:38;;;;;;;11.25;2.88;;;21.00;99.90;;;;;;4963951;28;20048;-81
2022/06/12 08:40:11;;;;;;;12.18;3.30;;;21.00;99.90;;;;;;4966551;28;20058;-81
2022/06/12 08:42:42;;;;;;;12.50;2.78;;;20.90;99.90;;;;;;4953358;28;20117;-81
2022/06/12 08:45:17;;;;;;;11.80;2.97;;;20.70;99.90;;;;;;4951776;28;20105;-81
2022/06/12 08:47:56;;;;;;;12.05;2.90;;;20.80;99.90;;;;;;4967947;28;20050;-81
2022/06/12 08:50:21;;;;;;;10.73;2.83;;;21.10;99.90;;;;;;4952933;28;20043;-80
2022/06/12 08:52:59;;;;;;;12.07;2.70;;;21.20;99.90;;;;;;4951564;28;20046;-80
2022/06/12 08:55:57;;;;;;;10.60;2.60;;;21.30;99.90;;;;;;4952500;28;20043;-81
2022/06/12 08:58:37;;;;;;;12.10;3.30;;;21.30;99.90;;;;;;4967618;28;20381;-81
2022/06/12 09:01:03;;;;;;;9.50;2.45;;;21.10;99.90;;;;;;4984994;28;20046;-81
2022/06/12 09:03:37;;;;;;;12.38;3.03;;;21.00;99.90;;;;;;4952564;28;20104;-81
2022/06/12 09:06:09;;;;;;;14.57;3.20;;;20.90;99.90;;;;;;4946399;28;20038;-83
2022/06/12 09:08:52;;;;;;;11.73;2.90;;;21.10;99.90;;;;;;4962678;28;20454;-81
2022/06/12 09:11:36;;;;;;;13.18;3.03;;;21.10;99.90;;;;;;4961513;28;20065;-81
2022/06/12 09:14:17;;;;;;;10.50;2.92;;;21.30;99.90;;;;;;4952488;28;20050;-81
2022/06/12 09:17:11;;;;;;;11.60;3.10;;;21.40;99.90;;;;;;4952752;28;20035;-81
2022/06/12 09:20:07;;;;;;;11.23;2.95;;;21.30;99.90;;;;;;4950471;28;20126;-82
2022/06/12 09:22:43;;;;;;;12.10;2.92;;;21.20;99.90;;;;;;4950643;28;20035;-81
2022/06/12 09:25:33;;;;;;;13.77;3.05;;;20.90;99.90;;;;;;4945984;28;20035;-82
2022/06/12 09:28:13;;;;;;;11.77;2.72;;;20.70;99.90;;;;;;4967275;28;20051;-82
2022/06/12 09:30:54;;;;;;;12.73;3.30;;;20.70;99.90;;;;;;4971708;28;20058;-82
2022/06/12 09:33:49;;;;;;;13.57;3.38;;;20.60;99.90;;;;;;4970404;28;20113;-82
2022/06/12 09:36:33;;;;;;;11.95;3.10;;;20.60;99.90;;;;;;4974854;28;20031;-81
2022/06/12 09:39:17;;;;;;;10.45;2.90;;;20.70;99.90;;;;;;4967429;28;20122;-83
2022/06/12 09:41:47;;;;;;;9.93;2.80;;;21.10;99.90;;;;;;4964663;28;20066;-83
2022/06/12 09:44:13;;;;;;;12.65;2.75;;;21.40;99.90;;;;;;4951162;28;21310;-81
2022/06/12 09:46:51;;;;;;;11.40;2.95;;;21.70;99.90;;;;;;4954926;28;20089;-82
2022/06/12 09:49:41;;;;;;;11.68;3.20;;;21.70;99.90;;;;;;4969815;28;20533;-81
2022/06/12 09:52:31;;;;;;;15.00;3.83;;;21.60;99.90;;;;;;4969478;28;20054;-80
2022/06/12 09:55:15;;;;;;;12.75;3.33;;;21.30;99.90;;;;;;4957291;28;20039;-81
2022/06/12 09:57:53;;;;;;;13.10;3.33;;;21.10;99.90;;;;;;4960548;28;20054;-78
2022/06/12 10:00:42;;;;;;;11.25;2.90;;;20.80;99.90;;;;;;4946363;28;20066;-78
2022/06/12 10:03:20;;;;;;;11.50;2.83;;;20.60;99.90;;;;;;4970449;28;20050;-78
2022/06/12 10:05:58;;;;;;;12.95;2.70;;;20.60;99.90;;;;;;4966204;28;20154;-83
2022/06/12 10:08:51;;;;;;;9.07;2.40;;;20.90;99.90;;;;;;4968310;28;20130;-80
2022/06/12 10:11:22;;;;;;;10.00;2.53;;;21.40;99.90;;;;;;4970077;28;20074;-79
2022/06/12 10:13:48;;;;;;;11.13;3.08;;;;;;;;;;4970306;28;20035;-81
2022/06/12 10:16:27;;;;;;;13.75;2.85;;;21.70;99.90;;;;;;4983521;28;20035;-80
2022/06/12 10:19:00;;;;;;;10.38;2.58;;;21.90;99.90;;;;;;4948185;28;20308;-81
2022/06/12 10:21:28;;;;;;;9.88;2.50;;;22.00;99.90;;;;;;4962779;28;20047;-82
2022/06/12 10:23:53;;;;;;;9.15;2.47;;;21.80;99.90;;;;;;4939092;28;20405;-82
2022/06/12 10:26:29;;;;;;;10.20;2.45;;;22.00;99.90;;;;;;4949934;28;20046;-80
2022/06/12 10:29:12;;;;;;;7.60;2.00;;;22.10;99.90;;;;;;4951543;28;20066;-80
2022/06/12 10:31:55;;;;;;;9.73;2.08;;;21.80;99.90;;;;;;4961884;28;20173;-82
2022/06/12 10:34:22;;;;;;;;;;;21.60;99.90;;;;;;4278863;28;9999991;-82
2022/06/12 10:36:48;;;;;;;8.38;2.00;;;21.60;99.90;;;;;;4953389;28;19969;-82
2022/06/12 10:39:22;;;;;;;9.30;2.10;;;21.70;99.90;;;;;;4952339;28;20041;-82
2022/06/12 10:41:54;;;;;;;9.10;2.10;;;21.80;99.90;;;;;;4962428;28;20046;-83
2022/06/12 10:44:28;;;;;;;7.38;2.00;;;22.00;99.90;;;;;;4953171;28;20437;-82
2022/06/12 10:46:53;;;;;;;6.43;1.90;;;22.20;99.90;;;;;;4967733;28;20034;-83
2022/06/12 10:49:23;;;;;;;6.68;2.00;;;22.30;99.90;;;;;;4932460;28;20064;-83
2022/06/12 10:51:52;;;;;;;9.85;2.25;;;22.30;99.90;;;;;;4963720;28;20078;-82
2022/06/12 10:54:20;;;;;;;7.55;1.80;;;22.30;99.90;;;;;;4946735;28;20041;-82
2022/06/12 10:56:54;;;;;;;8.63;2.08;;;22.40;99.90;;;;;;4982461;28;20049;-82
2022/06/12 10:59:42;;;;;;;5.68;1.60;;;22.50;99.90;;;;;;4987502;28;20046;-83
2022/06/12 11:02:26;;;;;;;7.32;1.90;;;22.30;99.90;;;;;;4985600;28;20035;-81
2022/06/12 11:05:24;;;;;;;9.02;2.00;;;22.50;99.90;;;;;;4981409;28;20126;-81
2022/06/12 11:08:01;;;;;;;7.57;1.90;;;22.40;99.90;;;;;;4962663;28;20432;-81
2022/06/12 11:10:27;;;;;;;8.60;2.47;;;22.30;99.90;;;;;;4966769;28;20078;-82
2022/06/12 11:13:02;;;;;;;8.82;2.17;;;22.00;99.90;;;;;;4966204;28;20132;-81
2022/06/12 11:15:40;;;;;;;7.70;2.00;;;21.60;99.90;;;;;;4981869;28;20297;-79
2022/06/12 11:18:30;;;;;;;8.57;2.00;;;21.70;99.90;;;;;;4967521;28;20034;-80
2022/06/12 11:21:02;;;;;;;10.57;2.33;;;21.90;99.90;;;;;;4968086;28;20385;-81
2022/06/12 11:23:57;;;;;;;6.70;1.90;;;22.10;99.90;;;;;;4954844;28;20061;-81
2022/06/12 11:26:23;;;;;;;8.23;2.30;;;;;;;;;;4972787;28;20049;-81
2022/06/12 11:29:08;;;;;;;9.00;2.10;;;22.60;99.90;;;;;;4953267;28;20045;-80
2022/06/12 11:31:36;;;;;;;9.18;2.33;;;22.80;99.90;;;;;;4972234;28;20077;-82
2022/06/12 11:34:26;;;;;;;10.32;2.30;;;22.10;99.90;;;;;;4957536;28;20042;-80
2022/06/12 11:37:11;;;;;;;9.05;2.20;;;22.00;99.90;;;;;;4983217;28;20038;-81
2022/06/12 11:39:59;;;;;;;7.85;2.38;;;21.90;99.90;;;;;;4939044;28;20318;-81
2022/06/12 11:42:48;;;;;;;10.23;1.98;;;21.90;99.90;;;;;;4978332;28;20066;-81
2022/06/12 11:45:38;;;;;;;7.43;1.92;;;22.00;99.90;;;;;;4978260;28;20034;-81
2022/06/12 11:48:32;;;;;;;9.13;2.50;;;22.00;99.90;;;;;;4963636;28;20374;-82
2022/06/12 11:51:05;;;;;;;9.88;2.30;;;21.90;99.90;;;;;;4946671;28;20038;-81
2022/06/12 11:53:37;;;;;;;9.98;2.75;;;21.70;99.90;;;;;;4985305;28;20038;-80
2022/06/12 11:56:35;;;;;;;9.10;2.70;;;21.80;99.90;;;;;;4966803;28;20069;-81
2022/06/12 11:59:06;;;;;;;14.93;2.55;;;22.00;99.90;;;;;;4969500;28;20042;-85
2022/06/12 12:02:08;;;;;;;7.83;2.00;;;22.20;99.90;;;;;;4984006;28;20096;-83
2022/06/12 12:05:04;;;;;;;6.82;2.03;;;22.30;99.90;;;;;;4908876;29;20040;-78
2022/06/12 12:07:52;;;;;;;8.90;2.17;;;22.50;99.90;;;;;;4951524;28;20065;-77
2022/06/12 12:10:36;;;;;;;9.52;2.30;;;22.70;99.90;;;;;;4963084;28;20034;-78
2022/06/12 12:13:10;;;;;;;6.38;2.00;;;22.60;99.90;;;;;;4965347;28;20042;-77
2022/06/12 12:15:50;;;;;;;8.43;2.15;;;22.50;99.90;;;;;;4953332;28;20042;-76
2022/06/12 12:18:43;;;;;;;8.38;1.95;;;22.50;99.90;;;;;;4970682;28;20046;-78
2022/06/12 12:21:20;;;;;;;9.30;2.20;;;22.30;99.90;;;;;;4963405;28;20046;-79
2022/06/12 12:23:48;;;;;;;9.27;2.25;;;22.30;99.90;;;;;;4947290;28;20078;-78
2022/06/12 12:26:33;;;;;;;9.68;2.20;;;22.40;99.90;;;;;;4954770;28;20081;-78
2022/06/12 12:29:01;;;;;;;11.35;2.80;;;22.40;99.90;;;;;;4969696;28;20046;-78
2022/06/12 12:31:29;;;;;;;7.28;1.98;;;22.50;99.90;;;;;;4952534;28;20058;-78
2022/06/12 12:33:59;;;;;;;8.13;2.00;;;22.30;99.90;;;;;;4934103;28;20549;-77
2022/06/12 12:42:38;;;;;;;8.32;1.95;;;22.00;99.90;;;;;;4968232;28;20188;-79
2022/06/12 12:45:15;;;;;;;8.57;2.15;;;21.80;99.90;;;;;;4947449;28;20442;-77
2022/06/12 12:47:41;;;;;;;7.82;1.90;;;21.80;99.90;;;;;;4948650;28;20085;-82
2022/06/12 12:50:16;;;;;;;7.63;1.92;;;22.10;99.90;;;;;;4949061;28;20126;-80
2022/06/12 12:52:50;;;;;;;8.73;2.22;;;22.30;99.90;;;;;;4949431;28;20777;-80
2022/06/12 12:55:24;;;;;;;8.98;2.00;;;22.30;99.90;;;;;;4949118;28;20519;-81
2022/06/12 12:57:51;;;;;;;7.97;1.92;;;22.40;99.90;;;;;;4942102;28;20556;-81
2022/06/12 13:00:17;;;;;;;8.05;2.17;;;22.40;99.90;;;;;;4951911;28;20096;-83
2022/06/12 13:02:54;;;;;;;8.80;2.38;;;22.30;99.90;;;;;;4971211;28;20664;-82
2022/06/12 13:05:23;;;;;;;7.47;2.03;;;22.20;99.90;;;;;;4953873;28;20052;-79
2022/06/12 13:07:49;;;;;;;7.57;1.98;;;22.20;99.90;;;;;;4956702;28;20143;-79
2022/06/12 13:10:33;;;;;;;9.65;2.33;;;22.30;99.90;;;;;;4946174;28;20322;-80
2022/06/12 13:13:23;;;;;;;6.82;1.88;;;22.30;99.90;;;;;;4970599;28;20118;-80
2022/06/12 13:16:09;;;;;;;9.50;2.00;;;22.30;99.90;;;;;;4973943;28;20061;-80
2022/06/12 13:18:37;;;;;;;8.30;2.20;;;22.20;99.90;;;;;;4972399;28;20034;-80
2022/06/12 13:21:24;;;;;;;6.00;1.95;;;22.10;99.90;;;;;;4956229;28;20058;-80
2022/06/12 13:24:10;;;;;;;7.22;1.90;;;22.20;99.90;;;;;;4974661;28;20039;-80
2022/06/12 13:26:40;;;;;;;9.57;2.33;;;22.40;99.90;;;;;;4959654;28;20050;-80
2022/06/12 13:29:15;;;;;;;8.70;2.00;;;22.70;99.90;;;;;;4975424;28;20065;-80
2022/06/12 13:31:51;;;;;;;7.93;1.73;;;22.80;99.90;;;;;;4975341;28;20046;-80